Time;durP1;ratioP1;P1;durP2;ratioP2;P2;SDS_P1;SDS_P2;PMS_P1;PMS_P2;Temp;Humidity;BMP_temperature;BMP_pressure;BME280_temperature;BME280_humidity;BME280_pressure;Samples;Min_cycle;Max_cycle;Signal;HPM_P1;HPM_P2
2022/09/10 00:00:32;;;;;;;9.95;1.65;;;;;;;12.52;94.88;96201.44;5032532;28;20045;-78
2022/09/10 00:02:58;;;;;;;10.15;2.03;;;;;;;12.65;94.24;96203.09;5032753;28;20570;-75
2022/09/10 00:05:26;;;;;;;9.60;1.85;;;;;;;12.68;93.65;96199.69;5031978;28;20038;-76
2022/09/10 00:07:53;;;;;;;12.07;2.10;;;;;;;12.71;93.64;96200.97;5032335;28;20065;-77
2022/09/10 00:10:19;;;;;;;9.00;1.70;;;;;;;12.63;93.43;96199.88;5026701;28;20057;-76
2022/09/10 00:12:47;;;;;;;10.70;2.00;;;;;;;12.58;92.89;96202.03;5011938;28;20041;-76
2022/09/10 00:15:14;;;;;;;13.00;2.03;;;;;;;12.32;94.11;96213.16;5011727;28;20493;-76
2022/09/10 00:17:42;;;;;;;22.00;3.33;;;;;;;12.19;95.13;96215.81;5011502;28;20112;-76
2022/09/10 00:20:10;;;;;;;14.30;2.10;;;;;;;12.08;95.79;96209.16;5028426;28;20057;-76
2022/09/10 00:22:36;;;;;;;38.03;5.55;;;;;;;11.98;97.15;96209.53;5030902;28;20512;-75
2022/09/10 00:25:03;;;;;;;8.93;1.50;;;;;;;11.96;96.98;96200.88;5023467;28;20103;-74
2022/09/10 00:27:29;;;;;;;13.05;1.73;;;;;;;12.06;97.10;96205.13;5031791;28;20049;-76
2022/09/10 00:29:56;;;;;;;11.27;1.58;;;;;;;11.93;96.38;96212.44;5032220;28;20057;-76
2022/09/10 00:32:22;;;;;;;4.10;1.00;;;;;;;11.96;95.87;96209.06;5031356;28;20053;-76
2022/09/10 00:34:50;;;;;;;13.98;2.28;;;;;;;11.83;96.69;96210.09;5031872;28;20116;-77
2022/09/10 00:37:18;;;;;;;12.45;2.28;;;;;;;11.85;96.88;96207.81;5031461;28;20053;-77
2022/09/10 00:39:44;;;;;;;12.65;1.80;;;;;;;11.88;96.60;96215.38;5031683;28;20052;-78
2022/09/10 00:42:11;;;;;;;9.80;1.67;;;;;;;11.84;96.29;96208.97;5031357;28;20049;-77
2022/09/10 00:44:59;;;;;;;10.18;1.58;;;;;;;11.66;97.21;96208.22;5031510;28;20504;-77
2022/09/10 00:47:28;;;;;;;8.95;1.60;;;;;;;11.74;97.09;96210.91;5031292;28;20041;-76
2022/09/10 00:50:05;;;;;;;9.82;1.63;;;;;;;11.75;97.17;96217.19;5031262;28;20052;-75
2022/09/10 00:52:33;;;;;;;8.02;1.45;;;;;;;11.80;96.03;96214.25;5031597;28;20052;-76
2022/09/10 00:54:59;;;;;;;11.60;1.80;;;;;;;11.72;96.12;96212.38;5020204;28;20053;-76
2022/09/10 00:57:27;;;;;;;11.02;1.50;;;;;;;11.72;96.42;96209.63;5029190;28;20099;-77
2022/09/10 00:59:58;;;;;;;10.07;1.60;;;;;;;11.89;95.55;96211.50;5031245;28;20049;-77
2022/09/10 01:02:25;;;;;;;9.10;1.50;;;;;;;12.01;95.03;96206.94;5030940;28;20087;-76
2022/09/10 01:04:53;;;;;;;5.25;1.10;;;;;;;12.13;94.66;96203.50;5031096;28;20477;-78
2022/09/10 01:07:22;;;;;;;12.20;2.03;;;;;;;12.13;93.72;96217.13;5030805;28;20080;-77
2022/09/10 01:09:49;;;;;;;11.88;2.53;;;;;;;12.04;93.73;96210.94;5031363;28;20045;-75
2022/09/10 01:12:31;;;;;;;6.13;1.25;;;;;;;12.16;93.15;96216.50;5030619;28;20525;-77
2022/09/10 01:15:09;;;;;;;8.55;1.63;;;;;;;12.26;92.64;96210.63;5031199;28;20049;-78
2022/09/10 01:17:46;;;;;;;7.43;1.50;;;;;;;12.42;93.21;96202.63;5050902;28;20045;-75
2022/09/10 01:20:31;;;;;;;15.43;2.70;;;;;;;12.45;93.11;96191.03;5050439;28;20056;-79
2022/09/10 01:23:17;;;;;;;6.30;1.25;;;;;;;12.46;92.46;96200.03;5050972;28;20052;-78
2022/09/10 01:25:53;;;;;;;8.70;1.35;;;;;;;12.45;90.67;96201.19;5041954;28;20065;-78
2022/09/10 01:28:27;;;;;;;5.35;1.10;;;;;;;12.56;90.67;96199.63;5049757;28;20072;-78
2022/09/10 01:31:01;;;;;;;8.32;1.48;;;;;;;12.53;90.29;96198.38;5050678;28;20052;-78
2022/09/10 01:33:36;;;;;;;10.75;1.75;;;;;;;12.64;90.81;96196.03;5050524;28;20040;-78
2022/09/10 01:36:08;;;;;;;10.20;1.58;;;;;;;12.57;90.01;96193.03;5050237;28;20049;-79
2022/09/10 01:38:37;;;;;;;7.78;1.30;;;;;;;12.59;89.95;96190.78;5050587;28;20079;-78
2022/09/10 01:41:04;;;;;;;11.43;1.70;;;;;;;12.55;89.49;96187.13;5050071;28;20045;-79
2022/09/10 01:43:32;;;;;;;8.27;1.63;;;;;;;12.51;88.89;96194.38;5050384;28;20066;-78
2022/09/10 01:46:13;;;;;;;9.20;1.60;;;;;;;12.56;88.93;96191.44;5050446;28;20075;-79
2022/09/10 01:48:55;;;;;;;10.95;1.90;;;;;;;12.59;89.74;96182.59;5050595;28;20538;-79
2022/09/10 01:51:32;;;;;;;12.10;2.10;;;;;;;12.65;90.20;96178.50;5049919;28;20051;-77
2022/09/10 01:54:16;;;;;;;8.20;1.58;;;;;;;12.70;90.62;96180.25;5047492;28;20049;-79
2022/09/10 01:56:50;;;;;;;9.52;1.60;;;;;;;12.72;89.59;96189.69;5042421;28;20065;-78
2022/09/10 01:59:26;;;;;;;8.88;1.58;;;;;;;12.43;89.23;96190.59;5049782;28;20040;-78
2022/09/10 02:01:59;;;;;;;8.40;1.63;;;;;;;12.54;89.24;96186.31;5050135;28;20412;-76
2022/09/10 02:04:28;;;;;;;11.15;1.90;;;;;;;12.62;89.02;96179.16;5049819;28;20040;-76
2022/09/10 02:06:56;;;;;;;5.72;1.10;;;;;;;12.67;89.29;96181.69;5050091;28;20211;-79
2022/09/10 02:09:23;;;;;;;14.05;2.08;;;;;;;12.73;89.14;96180.34;5049499;28;20522;-77
2022/09/10 02:11:51;;;;;;;8.75;1.65;;;;;;;12.76;89.17;96174.22;5050104;28;20041;-78
2022/09/10 02:14:20;;;;;;;8.88;2.05;;;;;;;12.76;89.04;96168.75;5049744;28;20037;-76
2022/09/10 02:16:52;;;;;;;6.57;1.25;;;;;;;12.84;89.50;96169.78;5049894;28;20053;-76
2022/09/10 02:19:19;;;;;;;9.63;1.90;;;;;;;12.89;89.85;96158.66;5049220;28;20126;-76
2022/09/10 02:21:46;;;;;;;7.38;1.50;;;;;;;12.71;88.76;96160.78;5049884;28;20049;-76
2022/09/10 02:24:13;;;;;;;13.88;2.05;;;;;;;12.79;89.03;96161.84;5044531;28;20046;-77
2022/09/10 02:26:41;;;;;;;9.60;1.55;;;;;;;12.91;88.98;96158.34;5041741;28;20463;-77
2022/09/10 02:29:09;;;;;;;6.30;1.20;;;;;;;12.88;89.32;96156.25;5049473;28;20041;-79
2022/09/10 02:31:37;;;;;;;10.45;1.95;;;;;;;12.94;89.67;96163.13;5049777;28;20068;-76
2022/09/10 02:34:04;;;;;;;8.60;1.60;;;;;;;12.98;89.70;96158.56;5049263;28;20056;-76
2022/09/10 02:36:31;;;;;;;7.72;1.60;;;;;;;12.93;89.49;96158.78;5049850;28;20049;-77
2022/09/10 02:38:58;;;;;;;7.13;1.55;;;;;;;12.83;89.73;96159.22;5049803;28;20054;-77
2022/09/10 02:41:25;;;;;;;8.77;1.67;;;;;;;12.86;89.17;96164.00;5052924;28;20128;-78
2022/09/10 02:43:51;;;;;;;8.65;1.50;;;;;;;12.74;88.77;96162.03;5053819;28;20052;-76
2022/09/10 02:46:18;;;;;;;8.85;1.67;;;;;;;12.58;88.81;96159.16;5053185;28;20052;-77
2022/09/10 02:48:46;;;;;;;7.18;1.40;;;;;;;12.67;88.91;96159.84;5053537;28;20041;-76
2022/09/10 02:51:13;;;;;;;8.88;1.67;;;;;;;12.58;88.74;96156.41;5053127;28;20411;-77
2022/09/10 02:53:39;;;;;;;11.90;2.03;;;;;;;12.54;89.00;96158.22;5053345;28;20239;-77
2022/09/10 02:56:07;;;;;;;8.70;1.73;;;;;;;12.61;89.29;96158.47;5040147;28;20097;-78
2022/09/10 02:58:34;;;;;;;7.20;1.52;;;;;;;12.49;89.20;96155.69;5053707;28;20045;-77
2022/09/10 03:01:07;;;;;;;9.68;1.90;;;;;;;12.46;89.26;96154.41;5053361;28;20052;-77
2022/09/10 03:03:33;;;;;;;;;;;;;;;12.38;89.58;96163.50;5053903;28;20045;-77
2022/09/10 03:06:01;;;;;;;10.60;1.67;;;;;;;12.34;89.72;96154.34;5053372;28;19925;-78
2022/09/10 03:08:28;;;;;;;7.18;1.67;;;;;;;12.37;89.40;96156.44;5053163;28;20518;-77
2022/09/10 03:10:54;;;;;;;8.65;1.65;;;;;;;12.47;89.42;96155.19;5053258;28;20446;-78
2022/09/10 03:13:21;;;;;;;9.23;1.80;;;;;;;12.55;89.43;96157.06;5052806;28;20048;-76
2022/09/10 03:15:47;;;;;;;11.30;1.92;;;;;;;12.53;89.71;96154.69;5053178;28;20045;-78
2022/09/10 03:18:14;;;;;;;8.25;1.58;;;;;;;12.56;89.52;96153.19;5052475;28;20061;-76
2022/09/10 03:20:41;;;;;;;8.95;1.60;;;;;;;12.61;89.90;96155.72;5053190;28;20148;-76
2022/09/10 03:23:10;;;;;;;12.55;2.25;;;;;;;12.57;90.02;96157.53;5052698;28;20075;-75
2022/09/10 03:25:36;;;;;;;8.77;1.67;;;;;;;12.60;89.19;96159.59;5042234;28;20052;-77
2022/09/10 03:28:03;;;;;;;11.25;1.77;;;;;;;12.55;89.06;96154.34;5052443;28;20127;-77
2022/09/10 03:30:31;;;;;;;11.07;2.05;;;;;;;12.59;88.81;96157.22;5052844;28;20045;-77
2022/09/10 03:32:58;;;;;;;10.75;1.90;;;;;;;12.57;88.17;96159.47;5052889;28;20118;-76
2022/09/10 03:35:25;;;;;;;11.02;2.08;;;;;;;12.56;88.55;96164.13;5052460;28;20060;-77
2022/09/10 03:37:51;;;;;;;11.48;1.92;;;;;;;12.50;88.69;96165.47;5052773;28;20083;-77
2022/09/10 03:40:19;;;;;;;7.57;1.70;;;;;;;12.53;88.48;96162.88;5052297;28;20450;-77
2022/09/10 03:42:45;;;;;;;11.63;2.05;;;;;;;12.55;89.07;96157.06;5052695;28;20060;-76
2022/09/10 03:45:12;;;;;;;10.73;2.00;;;;;;;12.49;88.58;96163.88;5052030;28;20048;-77
2022/09/10 03:47:39;;;;;;;7.45;1.65;;;;;;;12.42;88.54;96166.31;5052784;28;20068;-77
2022/09/10 03:50:06;;;;;;;8.63;1.77;;;;;;;12.49;89.27;96169.34;5051637;28;20132;-76
2022/09/10 03:52:34;;;;;;;14.98;2.30;;;;;;;12.39;89.48;96170.53;5052374;28;20565;-78
2022/09/10 03:55:01;;;;;;;10.38;1.70;;;;;;;12.42;89.44;96174.53;5043019;28;20504;-80
2022/09/10 03:57:29;;;;;;;10.95;2.17;;;;;;;12.42;89.80;96164.41;5032039;28;20052;-79
2022/09/10 03:59:55;;;;;;;10.07;1.95;;;;;;;12.43;89.61;96165.22;5037675;28;20052;-78
2022/09/10 04:02:22;;;;;;;12.10;1.92;;;;;;;12.43;89.24;96165.22;5051786;28;20056;-79
2022/09/10 04:04:48;;;;;;;11.20;2.15;;;;;;;12.45;89.42;96173.88;5052508;28;20056;-79
2022/09/10 04:07:15;;;;;;;9.25;1.65;;;;;;;12.39;89.15;96169.75;5051692;28;20052;-79
2022/09/10 04:09:41;;;;;;;8.75;1.60;;;;;;;12.42;89.36;96169.84;5052465;28;20472;-78
2022/09/10 04:12:08;;;;;;;11.38;1.90;;;;;;;12.44;89.22;96166.81;5051564;28;20056;-77
2022/09/10 04:14:36;;;;;;;10.35;2.03;;;;;;;12.25;88.51;96170.00;5052217;28;20049;-77
2022/09/10 04:17:02;;;;;;;11.05;1.80;;;;;;;12.33;88.17;96171.09;5051757;28;20045;-79
2022/09/10 04:19:29;;;;;;;14.60;2.10;;;;;;;12.28;88.24;96170.16;5051735;28;20076;-78
2022/09/10 04:21:56;;;;;;;9.35;1.88;;;;;;;12.32;88.76;96164.81;5052055;28;20060;-79
2022/09/10 04:24:23;;;;;;;7.00;1.63;;;;;;;12.37;89.38;96155.59;5041913;28;20045;-78
2022/09/10 04:26:49;;;;;;;10.50;1.90;;;;;;;12.40;90.09;96160.41;5045055;28;20041;-78
2022/09/10 04:29:16;;;;;;;10.02;1.95;;;;;;;12.30;89.83;96164.34;5051328;28;20090;-78
2022/09/10 04:31:45;;;;;;;8.93;1.83;;;;;;;12.24;89.37;96158.28;5051734;28;20512;-80
2022/09/10 04:34:12;;;;;;;7.28;1.63;;;;;;;12.33;89.61;96151.97;5051307;28;20098;-78
2022/09/10 04:36:38;;;;;;;14.43;2.47;;;;;;;12.39;90.14;96156.88;5051660;28;20048;-78
2022/09/10 04:39:05;;;;;;;9.63;1.90;;;;;;;12.36;90.03;96154.00;5051028;28;20049;-79
2022/09/10 04:41:31;;;;;;;12.20;1.98;;;;;;;12.35;89.70;96157.88;5051530;28;20040;-77
2022/09/10 04:43:58;;;;;;;7.20;1.55;;;;;;;12.38;89.59;96151.78;5051390;28;20068;-78
2022/09/10 04:46:24;;;;;;;10.93;2.00;;;;;;;12.44;89.95;96155.88;5051208;28;20467;-78
2022/09/10 04:48:53;;;;;;;12.18;1.80;;;;;;;12.47;90.25;96156.00;5051416;28;20064;-78
2022/09/10 04:51:19;;;;;;;11.35;2.28;;;;;;;12.52;90.66;96153.06;5051051;28;20052;-78
2022/09/10 04:53:46;;;;;;;8.63;1.40;;;;;;;12.55;90.28;96151.59;5048262;28;20072;-79
2022/09/10 04:56:12;;;;;;;12.90;2.10;;;;;;;12.60;90.57;96154.13;5038887;28;20056;-78
2022/09/10 04:58:39;;;;;;;11.43;2.15;;;;;;;12.63;90.50;96153.44;5051328;28;20543;-78
2022/09/10 05:01:06;;;;;;;13.88;2.17;;;;;;;12.65;90.74;96156.66;5050681;28;20047;-78
2022/09/10 05:03:33;;;;;;;11.45;1.92;;;;;;;12.68;89.45;96155.16;5050553;28;20052;-79
2022/09/10 05:06:01;;;;;;;11.45;2.10;;;;;;;12.62;87.95;96161.97;5051224;28;20056;-79
2022/09/10 05:08:28;;;;;;;19.40;2.83;;;;;;;12.66;87.81;96158.25;5050864;28;20036;-81
2022/09/10 05:10:55;;;;;;;19.58;3.00;;;;;;;12.59;87.77;96160.75;5048043;28;20103;-79
2022/09/10 05:13:23;;;;;;;23.17;3.15;;;;;;;12.70;87.61;96159.19;5047713;28;20055;-79
2022/09/10 05:15:49;;;;;;;16.70;2.40;;;;;;;12.74;87.37;96167.50;5048190;28;20424;-79
2022/09/10 05:18:16;;;;;;;18.17;2.67;;;;;;;12.84;86.75;96172.53;5047541;28;20057;-80
2022/09/10 05:20:44;;;;;;;17.88;2.58;;;;;;;12.85;87.13;96173.34;5047881;28;20053;-79
2022/09/10 05:23:12;;;;;;;19.33;2.90;;;;;;;12.92;86.46;96177.13;5047082;28;20048;-77
2022/09/10 05:25:38;;;;;;;17.58;2.70;;;;;;;12.86;86.23;96180.41;5032752;28;20416;-80
2022/09/10 05:28:05;;;;;;;15.32;2.55;;;;;;;12.94;85.54;96174.03;5047337;28;20052;-78
2022/09/10 05:30:32;;;;;;;15.63;2.55;;;;;;;12.93;85.54;96175.97;5047725;28;20060;-77
2022/09/10 05:32:59;;;;;;;17.75;2.75;;;;;;;12.99;85.78;96182.03;5047505;28;20135;-78
2022/09/10 05:35:26;;;;;;;8.10;1.52;;;;;;;13.04;85.81;96173.63;5047309;28;20060;-78
2022/09/10 05:37:52;;;;;;;16.45;2.65;;;;;;;13.05;85.70;96186.97;5047843;28;20049;-79
2022/09/10 05:40:21;;;;;;;16.65;2.75;;;;;;;13.11;85.58;96179.34;5047318;28;20099;-79
2022/09/10 05:42:47;;;;;;;16.77;2.70;;;;;;;13.17;86.01;96188.94;5047786;28;20053;-78
2022/09/10 05:45:14;;;;;;;16.67;2.63;;;;;;;13.18;85.58;96190.50;5047170;28;20049;-78
2022/09/10 05:47:42;;;;;;;19.15;3.05;;;;;;;13.25;85.62;96184.50;5047758;28;20052;-78
2022/09/10 05:50:10;;;;;;;26.55;3.97;;;;;;;13.27;85.63;96193.19;5045966;28;20099;-80
2022/09/10 05:52:36;;;;;;;15.13;2.60;;;;;;;13.28;86.51;96192.84;5046525;28;20049;-79
2022/09/10 05:55:03;;;;;;;17.27;2.63;;;;;;;13.32;85.68;96196.50;5039196;28;20049;-81
2022/09/10 05:57:31;;;;;;;18.65;2.95;;;;;;;13.35;85.72;96191.50;5047087;28;20057;-81
2022/09/10 05:59:58;;;;;;;14.88;2.50;;;;;;;13.36;86.28;96202.06;5047382;28;20049;-79
2022/09/10 06:02:25;;;;;;;14.60;2.42;;;;;;;13.38;86.56;96190.81;5046512;28;20045;-78
2022/09/10 06:04:51;;;;;;;17.90;2.80;;;;;;;13.39;86.61;96206.09;5047299;28;20057;-78
2022/09/10 06:07:18;;;;;;;17.75;3.10;;;;;;;13.45;86.47;96207.47;5046505;28;20057;-80
2022/09/10 06:09:44;;;;;;;15.82;2.75;;;;;;;13.50;87.30;96207.25;5047243;28;20056;-80
2022/09/10 06:12:11;;;;;;;22.85;3.80;;;;;;;13.57;88.50;96212.94;5046654;28;20057;-79
2022/09/10 06:14:39;;;;;;;17.58;2.95;;;;;;;13.62;88.99;96214.66;5047080;28;20118;-78
2022/09/10 06:17:05;;;;;;;15.70;2.72;;;;;;;13.64;89.09;96220.59;5046553;28;20044;-79
2022/09/10 06:19:32;;;;;;;21.15;3.13;;;;;;;13.58;87.16;96225.50;5046627;28;20053;-78
2022/09/10 06:21:58;;;;;;;17.02;2.75;;;;;;;13.42;86.06;96235.50;5047098;28;20431;-77
2022/09/10 06:24:25;;;;;;;21.55;3.28;;;;;;;13.54;85.94;96227.31;5039697;28;20068;-79
2022/09/10 06:26:51;;;;;;;16.58;2.50;;;;;;;13.34;87.83;96230.91;5046879;28;20049;-77
2022/09/10 06:29:18;;;;;;;22.85;3.38;;;;;;;13.25;88.97;96231.78;5046365;28;20049;-78
2022/09/10 06:31:47;;;;;;;10.90;1.77;;;;;;;13.14;89.80;96227.88;5046982;28;20771;-79
2022/09/10 06:34:15;;;;;;;22.98;3.55;;;;;;;13.22;90.04;96229.75;5043079;28;20057;-78
2022/09/10 06:36:42;;;;;;;14.05;2.20;;;;;;;13.30;90.09;96231.59;5040406;28;20049;-79
2022/09/10 06:39:09;;;;;;;20.70;3.33;;;;;;;13.36;90.58;96234.09;5026713;28;20122;-79
2022/09/10 06:41:36;;;;;;;19.27;3.10;;;;;;;13.24;92.10;96243.88;5029617;28;20045;-79
2022/09/10 06:44:02;;;;;;;22.48;3.20;;;;;;;13.32;92.27;96244.94;5046625;28;20045;-80
2022/09/10 06:46:29;;;;;;;19.42;2.80;;;;;;;13.39;92.43;96244.38;5046972;28;20052;-79
2022/09/10 06:48:59;;;;;;;17.02;2.47;;;;;;;13.48;92.71;96258.75;5047045;28;20056;-79
2022/09/10 06:51:26;;;;;;;18.08;2.90;;;;;;;13.51;91.89;96258.06;5046674;28;20049;-81
2022/09/10 06:53:52;;;;;;;15.82;2.60;;;;;;;13.54;91.74;96260.94;5042688;28;20049;-79
2022/09/10 06:56:19;;;;;;;21.08;3.45;;;;;;;13.60;91.78;96264.25;5035558;28;20048;-79
2022/09/10 06:58:46;;;;;;;20.17;3.05;;;;;;;13.59;91.88;96259.91;5047002;28;20143;-79
2022/09/10 07:01:14;;;;;;;18.08;2.70;;;;;;;13.51;92.32;96258.06;5046908;28;20048;-79
2022/09/10 07:03:42;;;;;;;13.48;2.10;;;;;;;13.35;92.89;96262.59;5046782;28;20052;-81
2022/09/10 07:06:12;;;;;;;17.10;3.17;;;;;;;13.27;93.33;96259.63;5046807;28;20606;-79
2022/09/10 07:08:39;;;;;;;20.00;3.25;;;;;;;13.11;94.70;96255.09;5047010;28;20088;-80
2022/09/10 07:11:10;;;;;;;23.92;3.83;;;;;;;12.92;95.73;96256.38;5046438;28;20049;-80
2022/09/10 07:13:37;;;;;;;18.17;2.70;;;;;;;12.85;96.89;96258.06;5046655;28;20053;-78
2022/09/10 07:16:04;;;;;;;19.30;3.40;;;;;;;12.88;97.70;96258.19;5046288;28;20083;-78
2022/09/10 07:18:32;;;;;;;12.57;2.17;;;;;;;12.63;97.62;96257.25;5046705;28;20079;-80
2022/09/10 07:21:07;;;;;;;16.83;2.53;;;;;;;12.76;98.46;96258.13;5047037;28;20076;-81
2022/09/10 07:23:35;;;;;;;25.00;3.47;;;;;;;12.74;98.79;96258.47;5044837;28;20049;-80
2022/09/10 07:26:03;;;;;;;19.10;3.35;;;;;;;12.82;98.67;96258.72;5034175;28;20052;-78
2022/09/10 07:28:30;;;;;;;13.35;2.38;;;;;;;12.83;98.10;96254.84;5050658;28;20049;-79
2022/09/10 07:30:57;;;;;;;17.92;2.75;;;;;;;12.89;98.44;96259.78;5050499;28;20043;-80
2022/09/10 07:33:24;;;;;;;12.38;2.20;;;;;;;12.98;98.89;96267.91;5050073;28;20041;-78
2022/09/10 07:35:50;;;;;;;10.93;1.98;;;;;;;12.98;99.42;96267.91;5041296;28;20053;-83
2022/09/10 07:38:19;;;;;;;4.30;1.23;;;;;;;12.99;100.00;96269.50;5051776;28;20036;-86
2022/09/10 07:40:47;;;;;;;18.08;2.72;;;;;;;12.94;100.00;96277.91;5036314;28;20056;-78
2022/09/10 07:43:14;;;;;;;26.27;4.05;;;;;;;12.94;99.27;96267.75;5038977;28;20068;-81
2022/09/10 07:45:41;;;;;;;18.58;2.97;;;;;;;12.79;99.49;96277.41;5042051;28;20055;-77
2022/09/10 07:48:07;;;;;;;15.10;2.58;;;;;;;12.83;100.00;96276.72;5054834;28;20073;-77
2022/09/10 07:50:34;;;;;;;17.48;2.70;;;;;;;12.86;100.00;96273.31;5036884;28;20068;-78
2022/09/10 07:53:01;;;;;;;18.10;3.17;;;;;;;12.98;100.00;96267.91;5034104;28;20045;-78
2022/09/10 07:55:29;;;;;;;15.05;2.67;;;;;;;13.05;99.95;96279.91;5024259;28;20686;-78
2022/09/10 07:57:57;;;;;;;19.98;3.10;;;;;;;13.00;99.97;96271.13;5045535;28;20056;-78
2022/09/10 08:00:23;;;;;;;13.63;2.40;;;;;;;12.96;100.00;96281.13;5048913;28;20511;-76
2022/09/10 08:02:50;;;;;;;16.65;2.70;;;;;;;13.01;99.71;96283.66;5049491;28;20075;-77
2022/09/10 08:05:16;;;;;;;20.20;3.05;;;;;;;12.98;99.37;96279.63;5049324;28;20546;-76
2022/09/10 08:07:43;;;;;;;18.45;2.72;;;;;;;12.91;99.31;96290.31;5049615;28;20052;-75
2022/09/10 08:10:10;;;;;;;18.25;2.78;;;;;;;13.04;99.37;96288.44;5048768;28;20699;-78
2022/09/10 08:12:38;;;;;;;19.27;2.90;;;;;;;13.19;99.09;96296.00;5049692;28;20049;-77
2022/09/10 08:15:08;;;;;;;15.38;2.28;;;;;;;13.12;97.58;96289.50;5048992;28;20585;-78
2022/09/10 08:17:36;;;;;;;18.58;2.80;;;;;;;13.17;96.71;96292.03;5049116;28;20133;-78
2022/09/10 08:20:05;;;;;;;13.65;2.20;;;;;;;13.23;96.64;96286.03;5049414;28;20053;-76
2022/09/10 08:22:32;;;;;;;16.13;2.58;;;;;;;13.23;97.66;96294.25;5049505;28;20051;-76
2022/09/10 08:24:59;;;;;;;19.75;3.10;;;;;;;13.26;96.41;96284.56;5035988;28;20129;-78
2022/09/10 08:27:25;;;;;;;15.98;2.50;;;;;;;13.46;97.57;96293.84;5046688;28;20053;-77
2022/09/10 08:29:53;;;;;;;8.30;1.63;;;;;;;13.53;96.83;96294.09;5049572;28;20045;-79
2022/09/10 08:32:21;;;;;;;16.13;2.90;;;;;;;13.77;97.67;96294.13;5047716;28;20049;-79
2022/09/10 08:34:48;;;;;;;12.63;1.98;;;;;;;13.69;94.63;96297.78;5049280;28;20171;-76
2022/09/10 08:37:15;;;;;;;17.33;2.95;;;;;;;13.77;95.81;96294.13;5048720;28;20862;-77
2022/09/10 08:39:42;;;;;;;14.70;2.55;;;;;;;13.84;95.13;96299.06;5048910;28;20567;-78
2022/09/10 08:42:16;;;;;;;18.98;2.83;;;;;;;13.98;94.19;96293.25;5048572;28;20049;-76
2022/09/10 08:44:48;;;;;;;14.68;2.72;;;;;;;13.91;92.65;96295.78;5036730;28;20073;-76
2022/09/10 08:47:31;;;;;;;12.88;2.40;;;;;;;14.13;93.08;96300.78;5028661;28;20050;-79
2022/09/10 08:50:01;;;;;;;15.68;2.90;;;;;;;14.17;93.27;96293.50;5028995;28;20056;-80
2022/09/10 08:52:32;;;;;;;20.52;3.28;;;;;;;14.07;92.02;96302.16;5028761;28;20051;-77
2022/09/10 08:55:06;;;;;;;23.08;4.15;;;;;;;14.25;93.60;96297.25;5029538;28;20057;-78
2022/09/10 08:57:36;;;;;;;11.90;2.17;;;;;;;14.45;91.44;96303.75;5027794;28;20610;-77
2022/09/10 09:00:07;;;;;;;26.23;3.75;;;;;;;14.49;90.80;96302.75;5028056;28;20436;-80
2022/09/10 09:02:45;;;;;;;22.13;2.83;;;;;;;14.43;89.20;96303.31;5028576;28;20126;-77
2022/09/10 09:05:16;;;;;;;16.70;2.78;;;;;;;14.35;90.82;96303.09;5027769;28;20372;-77
2022/09/10 09:07:43;;;;;;;14.05;2.00;;;;;;;14.28;90.65;96302.84;5028819;28;20049;-77
2022/09/10 09:10:19;;;;;;;20.25;2.95;;;;;;;14.36;91.82;96304.69;5028022;28;20452;-78
2022/09/10 09:12:56;;;;;;;20.38;2.88;;;;;;;14.24;89.61;96310.16;5028181;28;20511;-77
2022/09/10 09:15:31;;;;;;;20.65;3.08;;;;;;;14.31;90.04;96313.13;5045809;28;20072;-77
2022/09/10 09:18:10;;;;;;;16.17;2.47;;;;;;;14.29;90.78;96323.63;5047921;28;20064;-77
2022/09/10 09:20:45;;;;;;;15.02;2.03;;;;;;;14.19;89.82;96315.06;5047936;28;20041;-78
2022/09/10 09:23:20;;;;;;;16.38;2.47;;;;;;;14.22;90.94;96315.19;5047648;28;20049;-77
2022/09/10 09:25:49;;;;;;;18.35;2.65;;;;;;;14.15;91.85;96325.09;5032519;28;20499;-79
2022/09/10 09:28:21;;;;;;;19.00;2.90;;;;;;;14.26;92.16;96312.56;5047527;28;20052;-76
2022/09/10 09:30:51;;;;;;;16.95;2.40;;;;;;;14.34;91.46;96312.44;5048125;28;20065;-79
2022/09/10 09:33:22;;;;;;;17.60;2.90;;;;;;;14.29;92.77;96309.13;5047356;28;20053;-77
2022/09/10 09:35:52;;;;;;;19.00;2.88;;;;;;;14.44;92.27;96307.63;5047647;28;20041;-77
2022/09/10 09:38:23;;;;;;;21.63;3.15;;;;;;;14.53;91.96;96311.88;5047065;28;20091;-79
2022/09/10 09:40:54;;;;;;;20.85;2.97;;;;;;;14.49;91.29;96308.22;5047289;28;20071;-79
2022/09/10 09:43:32;;;;;;;16.80;2.60;;;;;;;14.54;91.55;96304.47;5047572;28;20128;-78
2022/09/10 09:45:59;;;;;;;18.95;2.75;;;;;;;14.69;91.74;96303.75;5037694;28;20054;-79
2022/09/10 09:48:36;;;;;;;15.10;2.55;;;;;;;14.83;90.81;96306.94;5026806;28;20056;-77
2022/09/10 09:51:04;;;;;;;21.48;3.10;;;;;;;14.93;89.68;96300.16;5027370;28;20050;-79
2022/09/10 09:53:31;;;;;;;17.15;2.72;;;;;;;15.16;89.66;96297.69;5028357;28;20064;-80
2022/09/10 09:55:59;;;;;;;14.68;2.25;;;;;;;15.08;88.45;96295.88;5033780;28;20060;-78
2022/09/10 09:58:29;;;;;;;15.70;2.70;;;;;;;15.27;87.25;96297.97;5047065;28;20053;-78
2022/09/10 10:01:17;;;;;;;16.17;2.63;;;;;;;15.52;87.31;96290.44;5047438;28;20446;-79
2022/09/10 10:03:51;;;;;;;17.13;2.58;;;;;;;15.95;85.83;96289.63;5046264;28;20566;-79
2022/09/10 10:06:21;;;;;;;17.27;2.85;;;;;;;16.29;84.37;96288.13;5046883;28;20052;-78
2022/09/10 10:08:55;;;;;;;19.45;3.40;;;;;;;16.43;81.86;96293.13;5046992;28;20056;-79
2022/09/10 10:11:22;;;;;;;16.35;2.63;;;;;;;16.32;79.93;96281.09;5046829;28;20197;-78
2022/09/10 10:13:50;;;;;;;18.05;2.80;;;;;;;16.06;82.82;96284.41;5047275;28;20045;-77
2022/09/10 10:16:21;;;;;;;13.00;2.15;;;;;;;16.15;82.15;96276.78;5046536;28;20072;-79
2022/09/10 10:18:50;;;;;;;16.40;2.53;;;;;;;15.68;82.42;96274.81;5047394;28;20045;-80
2022/09/10 10:21:20;;;;;;;16.60;2.63;;;;;;;15.70;84.25;96272.50;5046922;28;20508;-80
2022/09/10 10:23:52;;;;;;;19.55;3.20;;;;;;;15.61;84.11;96274.63;5044130;28;20056;-80
2022/09/10 10:26:30;;;;;;;23.42;3.80;;;;;;;15.51;88.18;96281.41;5035976;28;20053;-78
2022/09/10 10:29:00;;;;;;;21.80;3.28;;;;;;;15.59;89.13;96271.41;5047042;28;20048;-80
2022/09/10 10:31:40;;;;;;;15.90;2.83;;;;;;;15.38;90.75;96272.44;5056312;28;20040;-76
2022/09/10 10:34:32;;;;;;;22.35;3.55;;;;;;;15.11;91.63;96273.25;5047129;28;20056;-78
2022/09/10 10:37:09;;;;;;;19.08;3.47;;;;;;;14.82;95.96;96271.63;5046459;28;20057;-77
2022/09/10 10:39:54;;;;;;;20.20;3.13;;;;;;;14.28;95.83;96259.03;5048807;28;20059;-79
2022/09/10 10:42:27;;;;;;;18.48;3.10;;;;;;;14.14;98.80;96236.66;5066662;28;20450;-79
2022/09/10 10:45:16;;;;;;;24.08;3.78;;;;;;;14.18;100.00;96247.75;5066478;28;20875;-78
2022/09/10 10:47:48;;;;;;;14.63;2.83;;;;;;;14.32;100.00;96253.66;5057675;28;20049;-78
2022/09/10 10:50:30;;;;;;;17.33;3.30;;;;;;;14.59;100.00;96249.41;5046256;28;20509;-77
2022/09/10 10:53:12;;;;;;;16.23;3.60;;;;;;;14.77;100.00;96236.22;5046772;28;20079;-77
2022/09/10 10:55:41;;;;;;;16.98;3.00;;;;;;;14.51;100.00;96239.38;5056897;28;20052;-76
2022/09/10 10:58:37;;;;;;;17.73;3.10;;;;;;;14.51;100.00;96236.63;5061072;28;20045;-81
2022/09/10 11:01:07;;;;;;;13.68;2.67;;;;;;;14.54;100.00;96252.41;5047236;28;20053;-76
2022/09/10 11:03:38;;;;;;;21.38;3.38;;;;;;;14.48;100.00;96259.28;5050605;28;20061;-75
2022/09/10 11:06:10;;;;;;;19.45;3.30;;;;;;;14.24;100.00;96258.09;5050620;28;20065;-75
2022/09/10 11:08:44;;;;;;;21.02;3.13;;;;;;;14.22;100.00;96259.59;5051235;28;20049;-76
2022/09/10 11:11:16;;;;;;;23.33;3.65;;;;;;;14.14;100.00;96255.84;5057218;28;20506;-75
2022/09/10 11:13:50;;;;;;;12.80;2.40;;;;;;;14.06;100.00;96249.34;5070850;28;20053;-75
2022/09/10 11:16:23;;;;;;;18.90;3.45;;;;;;;14.15;100.00;96257.47;5070098;28;20048;-77
2022/09/10 11:18:56;;;;;;;15.70;2.75;;;;;;;13.92;100.00;96272.72;5070445;28;20071;-75
2022/09/10 11:21:30;;;;;;;18.13;3.25;;;;;;;13.80;100.00;96271.56;5070096;28;20048;-76
2022/09/10 11:23:58;;;;;;;;;;;;;;;13.70;100.00;96277.50;5060401;28;20500;-76
2022/09/10 11:26:31;;;;;;;15.68;2.45;;;;;;;13.61;100.00;96293.19;5048145;28;19931;-76
2022/09/10 11:29:12;;;;;;;25.98;3.35;;;;;;;13.37;100.00;96287.69;5066568;28;20051;-76
2022/09/10 11:31:44;;;;;;;19.33;2.78;;;;;;;13.17;100.00;96281.88;5029460;28;20103;-77
2022/09/10 11:34:15;;;;;;;13.85;2.15;;;;;;;13.12;100.00;96275.81;5037235;28;20060;-76
2022/09/10 11:36:49;;;;;;;25.98;3.05;;;;;;;12.77;100.00;96279.66;5050077;28;20525;-77